sensor_id;sensor_type;location;lat;lon;timestamp;temperature;humidity
5128;DHT22;2582;48.770;9.190;2023-09-30T00:02:06;18.80;99.90
5128;DHT22;2582;48.770;9.190;2023-09-30T00:04:32;18.80;99.90
5128;DHT22;2582;48.770;9.190;2023-09-30T00:09:27;18.90;99.90
5128;DHT22;2582;48.770;9.190;2023-09-30T00:11:52;18.80;99.90
5128;DHT22;2582;48.770;9.190;2023-09-30T00:14:20;18.70;99.90
5128;DHT22;2582;48.770;9.190;2023-09-30T00:16:46;18.80;99.90
5128;DHT22;2582;48.770;9.190;2023-09-30T00:19:11;18.80;99.90
5128;DHT22;2582;48.770;9.190;2023-09-30T00:21:37;18.80;99.90
5128;DHT22;2582;48.770;9.190;2023-09-30T00:24:02;18.80;99.90
5128;DHT22;2582;48.770;9.190;2023-09-30T00:26:28;18.70;99.90
5128;DHT22;2582;48.770;9.190;2023-09-30T00:28:53;18.70;99.90
5128;DHT22;2582;48.770;9.190;2023-09-30T00:31:19;18.70;99.90
5128;DHT22;2582;48.770;9.190;2023-09-30T00:33:44;18.90;99.90
5128;DHT22;2582;48.770;9.190;2023-09-30T00:36:10;19.00;99.90
5128;DHT22;2582;48.770;9.190;2023-09-30T00:38:39;19.00;99.90
5128;DHT22;2582;48.770;9.190;2023-09-30T00:41:05;19.00;99.90
5128;DHT22;2582;48.770;9.190;2023-09-30T00:43:32;19.10;99.90
5128;DHT22;2582;48.770;9.190;2023-09-30T00:46:23;19.00;99.90
5128;DHT22;2582;48.770;9.190;2023-09-30T00:48:51;18.80;99.90
5128;DHT22;2582;48.770;9.190;2023-09-30T00:51:17;18.90;99.90
5128;DHT22;2582;48.770;9.190;2023-09-30T00:53:43;18.80;99.90
5128;DHT22;2582;48.770;9.190;2023-09-30T00:56:10;18.70;99.90
5128;DHT22;2582;48.770;9.190;2023-09-30T00:58:38;18.60;99.90
5128;DHT22;2582;48.770;9.190;2023-09-30T01:01:04;18.70;99.90
5128;DHT22;2582;48.770;9.190;2023-09-30T01:03:30;18.90;99.90
5128;DHT22;2582;48.770;9.190;2023-09-30T01:05:56;18.70;99.90
5128;DHT22;2582;48.770;9.190;2023-09-30T01:08:22;18.90;99.90
5128;DHT22;2582;48.770;9.190;2023-09-30T01:10:48;18.80;99.90
5128;DHT22;2582;48.770;9.190;2023-09-30T01:13:13;18.70;99.90
5128;DHT22;2582;48.770;9.190;2023-09-30T01:15:39;18.80;99.90
5128;DHT22;2582;48.770;9.190;2023-09-30T01:18:05;18.90;99.90
5128;DHT22;2582;48.770;9.190;2023-09-30T01:20:31;18.90;99.90
5128;DHT22;2582;48.770;9.190;2023-09-30T01:22:57;18.70;99.90
5128;DHT22;2582;48.770;9.190;2023-09-30T01:25:24;18.50;99.90
5128;DHT22;2582;48.770;9.190;2023-09-30T01:27:49;18.60;99.90
5128;DHT22;2582;48.770;9.190;2023-09-30T01:30:17;18.80;99.90
5128;DHT22;2582;48.770;9.190;2023-09-30T01:32:43;19.00;99.90
5128;DHT22;2582;48.770;9.190;2023-09-30T01:35:09;18.90;99.90
5128;DHT22;2582;48.770;9.190;2023-09-30T01:37:35;18.90;99.90
5128;DHT22;2582;48.770;9.190;2023-09-30T01:40:02;18.90;99.90
5128;DHT22;2582;48.770;9.190;2023-09-30T01:42:29;18.90;99.90
5128;DHT22;2582;48.770;9.190;2023-09-30T01:44:54;18.80;99.90
5128;DHT22;2582;48.770;9.190;2023-09-30T01:47:22;18.80;99.90
5128;DHT22;2582;48.770;9.190;2023-09-30T01:49:47;18.70;99.90
5128;DHT22;2582;48.770;9.190;2023-09-30T01:52:13;18.90;99.90
5128;DHT22;2582;48.770;9.190;2023-09-30T01:54:38;19.00;99.90
5128;DHT22;2582;48.770;9.190;2023-09-30T01:57:04;19.00;99.90
5128;DHT22;2582;48.770;9.190;2023-09-30T01:59:29;19.00;99.90
5128;DHT22;2582;48.770;9.190;2023-09-30T02:01:55;18.90;99.90
5128;DHT22;2582;48.770;9.190;2023-09-30T02:04:21;18.90;99.90
5128;DHT22;2582;48.770;9.190;2023-09-30T02:06:46;18.60;99.90
5128;DHT22;2582;48.770;9.190;2023-09-30T02:09:12;18.70;99.90
5128;DHT22;2582;48.770;9.190;2023-09-30T02:11:38;18.80;99.90
5128;DHT22;2582;48.770;9.190;2023-09-30T02:14:06;18.80;99.90
5128;DHT22;2582;48.770;9.190;2023-09-30T02:16:32;18.80;99.90
5128;DHT22;2582;48.770;9.190;2023-09-30T02:18:58;18.70;99.90
5128;DHT22;2582;48.770;9.190;2023-09-30T02:21:23;18.60;99.90
5128;DHT22;2582;48.770;9.190;2023-09-30T02:23:49;18.50;99.90
5128;DHT22;2582;48.770;9.190;2023-09-30T02:26:15;18.50;99.90
5128;DHT22;2582;48.770;9.190;2023-09-30T02:28:40;18.50;99.90
5128;DHT22;2582;48.770;9.190;2023-09-30T02:31:06;18.50;99.90
5128;DHT22;2582;48.770;9.190;2023-09-30T02:33:33;18.10;99.90
5128;DHT22;2582;48.770;9.190;2023-09-30T02:36:01;18.10;99.90
5128;DHT22;2582;48.770;9.190;2023-09-30T02:38:27;18.10;99.90
5128;DHT22;2582;48.770;9.190;2023-09-30T02:40:54;18.10;99.90
5128;DHT22;2582;48.770;9.190;2023-09-30T02:43:20;18.10;99.90
5128;DHT22;2582;48.770;9.190;2023-09-30T02:45:46;18.10;99.90
5128;DHT22;2582;48.770;9.190;2023-09-30T02:48:12;18.00;99.90
5128;DHT22;2582;48.770;9.190;2023-09-30T02:50:37;18.10;99.90
5128;DHT22;2582;48.770;9.190;2023-09-30T02:53:04;18.00;99.90
5128;DHT22;2582;48.770;9.190;2023-09-30T02:55:30;17.80;99.90
5128;DHT22;2582;48.770;9.190;2023-09-30T02:57:56;17.90;99.90
5128;DHT22;2582;48.770;9.190;2023-09-30T03:00:23;18.00;99.90
5128;DHT22;2582;48.770;9.190;2023-09-30T03:02:53;18.00;99.90
5128;DHT22;2582;48.770;9.190;2023-09-30T03:05:19;18.30;99.90
5128;DHT22;2582;48.770;9.190;2023-09-30T03:07:46;18.30;99.90
5128;DHT22;2582;48.770;9.190;2023-09-30T03:10:12;18.30;99.90
5128;DHT22;2582;48.770;9.190;2023-09-30T03:12:39;18.40;99.90
5128;DHT22;2582;48.770;9.190;2023-09-30T03:15:05;18.40;99.90
5128;DHT22;2582;48.770;9.190;2023-09-30T03:17:31;18.50;99.90
5128;DHT22;2582;48.770;9.190;2023-09-30T03:19:58;18.50;99.90
5128;DHT22;2582;48.770;9.190;2023-09-30T03:22:25;18.50;99.90
5128;DHT22;2582;48.770;9.190;2023-09-30T03:24:52;18.50;99.90
5128;DHT22;2582;48.770;9.190;2023-09-30T03:27:19;18.60;99.90
5128;DHT22;2582;48.770;9.190;2023-09-30T03:29:45;18.60;99.90
5128;DHT22;2582;48.770;9.190;2023-09-30T03:32:11;18.60;99.90
5128;DHT22;2582;48.770;9.190;2023-09-30T03:34:37;18.60;99.90
5128;DHT22;2582;48.770;9.190;2023-09-30T03:37:03;18.60;99.90
5128;DHT22;2582;48.770;9.190;2023-09-30T03:39:32;18.60;99.90
5128;DHT22;2582;48.770;9.190;2023-09-30T03:41:57;18.70;99.90
5128;DHT22;2582;48.770;9.190;2023-09-30T03:44:24;18.50;99.90
5128;DHT22;2582;48.770;9.190;2023-09-30T03:46:51;18.60;99.90
5128;DHT22;2582;48.770;9.190;2023-09-30T03:49:18;18.70;99.90
5128;DHT22;2582;48.770;9.190;2023-09-30T03:51:45;18.70;99.90
5128;DHT22;2582;48.770;9.190;2023-09-30T03:54:11;18.70;99.90
5128;DHT22;2582;48.770;9.190;2023-09-30T03:56:38;18.70;99.90
5128;DHT22;2582;48.770;9.190;2023-09-30T03:59:07;18.70;99.90
5128;DHT22;2582;48.770;9.190;2023-09-30T04:01:34;18.80;99.90
5128;DHT22;2582;48.770;9.190;2023-09-30T04:04:00;18.80;99.90
5128;DHT22;2582;48.770;9.190;2023-09-30T04:06:26;18.80;99.90
5128;DHT22;2582;48.770;9.190;2023-09-30T04:08:51;18.60;99.90
5128;DHT22;2582;48.770;9.190;2023-09-30T04:11:17;18.50;99.90
5128;DHT22;2582;48.770;9.190;2023-09-30T04:13:44;18.50;99.90
5128;DHT22;2582;48.770;9.190;2023-09-30T04:16:11;18.60;99.90
5128;DHT22;2582;48.770;9.190;2023-09-30T04:18:37;18.40;99.90
5128;DHT22;2582;48.770;9.190;2023-09-30T04:21:04;18.30;99.90
5128;DHT22;2582;48.770;9.190;2023-09-30T04:23:29;18.20;99.90
5128;DHT22;2582;48.770;9.190;2023-09-30T04:25:55;18.20;99.90
5128;DHT22;2582;48.770;9.190;2023-09-30T04:28:21;18.40;99.90
5128;DHT22;2582;48.770;9.190;2023-09-30T04:30:47;18.40;99.90
5128;DHT22;2582;48.770;9.190;2023-09-30T04:33:16;18.40;99.90
5128;DHT22;2582;48.770;9.190;2023-09-30T04:35:45;18.40;99.90
5128;DHT22;2582;48.770;9.190;2023-09-30T04:38:11;18.40;99.90
5128;DHT22;2582;48.770;9.190;2023-09-30T04:40:38;18.40;99.90
5128;DHT22;2582;48.770;9.190;2023-09-30T04:43:04;18.30;99.90
5128;DHT22;2582;48.770;9.190;2023-09-30T04:45:31;18.40;99.90
5128;DHT22;2582;48.770;9.190;2023-09-30T04:47:56;18.40;99.90
5128;DHT22;2582;48.770;9.190;2023-09-30T04:50:22;18.30;99.90
5128;DHT22;2582;48.770;9.190;2023-09-30T04:52:48;18.40;99.90
5128;DHT22;2582;48.770;9.190;2023-09-30T04:55:17;18.50;99.90
5128;DHT22;2582;48.770;9.190;2023-09-30T04:57:44;18.50;99.90
5128;DHT22;2582;48.770;9.190;2023-09-30T05:00:18;18.40;99.90
5128;DHT22;2582;48.770;9.190;2023-09-30T05:02:47;18.40;99.90
5128;DHT22;2582;48.770;9.190;2023-09-30T05:05:13;18.50;99.90
5128;DHT22;2582;48.770;9.190;2023-09-30T05:07:40;18.30;99.90
5128;DHT22;2582;48.770;9.190;2023-09-30T05:10:07;18.10;99.90
5128;DHT22;2582;48.770;9.190;2023-09-30T05:12:37;17.80;99.90
5128;DHT22;2582;48.770;9.190;2023-09-30T05:15:03;17.90;99.90
5128;DHT22;2582;48.770;9.190;2023-09-30T05:17:31;18.00;99.90
5128;DHT22;2582;48.770;9.190;2023-09-30T05:19:57;18.10;99.90
5128;DHT22;2582;48.770;9.190;2023-09-30T05:22:23;18.30;99.90
5128;DHT22;2582;48.770;9.190;2023-09-30T05:24:53;18.20;99.90
5128;DHT22;2582;48.770;9.190;2023-09-30T05:27:19;18.30;99.90
5128;DHT22;2582;48.770;9.190;2023-09-30T05:29:44;18.30;99.90
5128;DHT22;2582;48.770;9.190;2023-09-30T05:32:10;18.40;99.90
5128;DHT22;2582;48.770;9.190;2023-09-30T05:34:36;18.30;99.90
5128;DHT22;2582;48.770;9.190;2023-09-30T05:37:02;18.10;99.90
5128;DHT22;2582;48.770;9.190;2023-09-30T05:39:28;18.30;99.90
5128;DHT22;2582;48.770;9.190;2023-09-30T05:41:54;18.40;99.90
5128;DHT22;2582;48.770;9.190;2023-09-30T05:44:20;18.40;99.90
5128;DHT22;2582;48.770;9.190;2023-09-30T05:46:46;18.30;99.90
5128;DHT22;2582;48.770;9.190;2023-09-30T05:49:12;18.30;99.90
5128;DHT22;2582;48.770;9.190;2023-09-30T05:51:39;18.40;99.90
5128;DHT22;2582;48.770;9.190;2023-09-30T05:54:06;18.50;99.90
5128;DHT22;2582;48.770;9.190;2023-09-30T05:56:36;18.30;99.90
5128;DHT22;2582;48.770;9.190;2023-09-30T05:59:02;18.30;99.90
5128;DHT22;2582;48.770;9.190;2023-09-30T06:01:28;18.50;99.90
5128;DHT22;2582;48.770;9.190;2023-09-30T06:03:54;18.60;99.90
5128;DHT22;2582;48.770;9.190;2023-09-30T06:06:20;18.70;99.90
5128;DHT22;2582;48.770;9.190;2023-09-30T06:08:45;18.70;99.90
5128;DHT22;2582;48.770;9.190;2023-09-30T06:11:21;18.40;99.90
5128;DHT22;2582;48.770;9.190;2023-09-30T06:13:51;18.10;99.90
5128;DHT22;2582;48.770;9.190;2023-09-30T06:16:18;18.20;99.90
5128;DHT22;2582;48.770;9.190;2023-09-30T06:18:44;18.20;99.90
5128;DHT22;2582;48.770;9.190;2023-09-30T06:21:11;18.20;99.90
5128;DHT22;2582;48.770;9.190;2023-09-30T06:23:36;18.10;99.90
5128;DHT22;2582;48.770;9.190;2023-09-30T06:26:03;18.00;99.90
5128;DHT22;2582;48.770;9.190;2023-09-30T06:28:29;18.00;99.90
5128;DHT22;2582;48.770;9.190;2023-09-30T06:30:56;17.90;99.90
5128;DHT22;2582;48.770;9.190;2023-09-30T06:33:22;17.90;99.90
5128;DHT22;2582;48.770;9.190;2023-09-30T06:35:47;18.00;99.90
5128;DHT22;2582;48.770;9.190;2023-09-30T06:38:19;18.00;99.90
5128;DHT22;2582;48.770;9.190;2023-09-30T06:40:45;17.90;99.90
5128;DHT22;2582;48.770;9.190;2023-09-30T06:43:14;18.00;99.90
5128;DHT22;2582;48.770;9.190;2023-09-30T06:45:43;18.10;99.90
5128;DHT22;2582;48.770;9.190;2023-09-30T06:48:10;18.20;99.90
5128;DHT22;2582;48.770;9.190;2023-09-30T06:50:39;18.30;99.90
5128;DHT22;2582;48.770;9.190;2023-09-30T06:53:05;18.40;99.90
5128;DHT22;2582;48.770;9.190;2023-09-30T06:55:31;18.50;99.90
5128;DHT22;2582;48.770;9.190;2023-09-30T06:57:57;18.50;99.90
5128;DHT22;2582;48.770;9.190;2023-09-30T07:00:23;18.30;99.90
5128;DHT22;2582;48.770;9.190;2023-09-30T07:02:48;18.20;99.90
5128;DHT22;2582;48.770;9.190;2023-09-30T07:05:15;18.00;99.90
5128;DHT22;2582;48.770;9.190;2023-09-30T07:07:41;18.20;99.90
5128;DHT22;2582;48.770;9.190;2023-09-30T07:10:11;18.60;99.90
5128;DHT22;2582;48.770;9.190;2023-09-30T07:12:36;18.60;99.90
5128;DHT22;2582;48.770;9.190;2023-09-30T07:15:03;18.80;99.90
5128;DHT22;2582;48.770;9.190;2023-09-30T07:17:29;19.10;99.90
5128;DHT22;2582;48.770;9.190;2023-09-30T07:19:55;19.10;99.90
5128;DHT22;2582;48.770;9.190;2023-09-30T07:22:21;19.10;99.90
5128;DHT22;2582;48.770;9.190;2023-09-30T07:24:46;19.10;99.90
5128;DHT22;2582;48.770;9.190;2023-09-30T07:27:12;18.70;99.90
5128;DHT22;2582;48.770;9.190;2023-09-30T07:29:37;18.60;99.90
5128;DHT22;2582;48.770;9.190;2023-09-30T07:32:03;18.50;99.90
5128;DHT22;2582;48.770;9.190;2023-09-30T07:34:28;18.30;99.90
5128;DHT22;2582;48.770;9.190;2023-09-30T07:36:54;18.40;99.90
5128;DHT22;2582;48.770;9.190;2023-09-30T07:39:20;18.60;99.90
5128;DHT22;2582;48.770;9.190;2023-09-30T07:41:46;18.60;99.90
5128;DHT22;2582;48.770;9.190;2023-09-30T07:44:12;18.70;99.90
5128;DHT22;2582;48.770;9.190;2023-09-30T07:46:37;18.80;99.90
5128;DHT22;2582;48.770;9.190;2023-09-30T07:49:03;19.00;99.90
5128;DHT22;2582;48.770;9.190;2023-09-30T07:51:29;19.20;99.90
5128;DHT22;2582;48.770;9.190;2023-09-30T07:53:55;19.10;99.90
5128;DHT22;2582;48.770;9.190;2023-09-30T07:56:21;19.10;99.90
5128;DHT22;2582;48.770;9.190;2023-09-30T07:58:48;19.10;99.90
5128;DHT22;2582;48.770;9.190;2023-09-30T08:01:14;19.10;99.90
5128;DHT22;2582;48.770;9.190;2023-09-30T08:03:40;19.00;99.90
5128;DHT22;2582;48.770;9.190;2023-09-30T08:06:07;19.10;99.90
5128;DHT22;2582;48.770;9.190;2023-09-30T08:08:34;18.90;99.90
5128;DHT22;2582;48.770;9.190;2023-09-30T08:11:00;19.00;99.90
5128;DHT22;2582;48.770;9.190;2023-09-30T08:13:26;19.10;99.90
5128;DHT22;2582;48.770;9.190;2023-09-30T08:15:51;19.10;99.90
5128;DHT22;2582;48.770;9.190;2023-09-30T08:18:18;19.00;99.90
5128;DHT22;2582;48.770;9.190;2023-09-30T08:20:44;18.70;99.90
5128;DHT22;2582;48.770;9.190;2023-09-30T08:23:10;19.10;99.90
5128;DHT22;2582;48.770;9.190;2023-09-30T08:25:37;19.10;99.90
5128;DHT22;2582;48.770;9.190;2023-09-30T08:28:04;18.70;99.90
5128;DHT22;2582;48.770;9.190;2023-09-30T08:30:29;18.70;99.90
5128;DHT22;2582;48.770;9.190;2023-09-30T08:32:56;19.00;99.90
5128;DHT22;2582;48.770;9.190;2023-09-30T08:35:21;19.30;99.90
5128;DHT22;2582;48.770;9.190;2023-09-30T08:37:47;19.30;99.90
5128;DHT22;2582;48.770;9.190;2023-09-30T08:40:12;19.00;99.90
5128;DHT22;2582;48.770;9.190;2023-09-30T08:42:41;18.90;99.90
5128;DHT22;2582;48.770;9.190;2023-09-30T08:45:09;18.70;99.90
5128;DHT22;2582;48.770;9.190;2023-09-30T08:47:36;18.80;99.90
5128;DHT22;2582;48.770;9.190;2023-09-30T08:50:03;18.90;99.90
5128;DHT22;2582;48.770;9.190;2023-09-30T08:52:34;19.20;99.90
5128;DHT22;2582;48.770;9.190;2023-09-30T08:55:01;19.20;99.90
5128;DHT22;2582;48.770;9.190;2023-09-30T08:57:27;19.40;99.90
5128;DHT22;2582;48.770;9.190;2023-09-30T08:59:53;19.40;99.90
5128;DHT22;2582;48.770;9.190;2023-09-30T09:02:19;19.50;99.90
5128;DHT22;2582;48.770;9.190;2023-09-30T09:04:48;19.60;99.90
5128;DHT22;2582;48.770;9.190;2023-09-30T09:07:14;19.50;99.90
5128;DHT22;2582;48.770;9.190;2023-09-30T09:09:40;19.40;99.90
5128;DHT22;2582;48.770;9.190;2023-09-30T09:12:06;19.50;99.90
5128;DHT22;2582;48.770;9.190;2023-09-30T09:14:40;19.50;99.90
5128;DHT22;2582;48.770;9.190;2023-09-30T09:17:07;19.70;99.90
5128;DHT22;2582;48.770;9.190;2023-09-30T09:19:33;19.70;99.90
5128;DHT22;2582;48.770;9.190;2023-09-30T09:22:00;19.90;99.90
5128;DHT22;2582;48.770;9.190;2023-09-30T09:24:27;20.10;99.90
5128;DHT22;2582;48.770;9.190;2023-09-30T09:27:04;20.20;99.90
5128;DHT22;2582;48.770;9.190;2023-09-30T09:29:30;20.30;99.90
5128;DHT22;2582;48.770;9.190;2023-09-30T09:32:07;20.30;99.90
5128;DHT22;2582;48.770;9.190;2023-09-30T09:34:33;20.30;99.90
5128;DHT22;2582;48.770;9.190;2023-09-30T09:36:59;20.50;99.90
5128;DHT22;2582;48.770;9.190;2023-09-30T09:39:30;20.30;99.90
5128;DHT22;2582;48.770;9.190;2023-09-30T09:41:56;20.40;99.90
5128;DHT22;2582;48.770;9.190;2023-09-30T09:44:23;20.20;99.90
5128;DHT22;2582;48.770;9.190;2023-09-30T09:46:52;20.20;99.90
5128;DHT22;2582;48.770;9.190;2023-09-30T09:49:19;20.30;99.90
5128;DHT22;2582;48.770;9.190;2023-09-30T09:51:47;20.30;99.90
5128;DHT22;2582;48.770;9.190;2023-09-30T09:54:13;20.40;99.90
5128;DHT22;2582;48.770;9.190;2023-09-30T09:56:39;20.50;99.90
5128;DHT22;2582;48.770;9.190;2023-09-30T09:59:06;20.60;99.90
5128;DHT22;2582;48.770;9.190;2023-09-30T10:01:35;20.80;99.90
5128;DHT22;2582;48.770;9.190;2023-09-30T10:04:01;21.20;99.90
5128;DHT22;2582;48.770;9.190;2023-09-30T10:06:28;20.90;99.90
5128;DHT22;2582;48.770;9.190;2023-09-30T10:08:54;20.70;99.90
5128;DHT22;2582;48.770;9.190;2023-09-30T10:11:21;20.70;99.90
5128;DHT22;2582;48.770;9.190;2023-09-30T10:13:54;21.00;99.90
5128;DHT22;2582;48.770;9.190;2023-09-30T10:21:33;21.60;99.90
5128;DHT22;2582;48.770;9.190;2023-09-30T10:35:21;22.20;99.90
5128;DHT22;2582;48.770;9.190;2023-09-30T10:37:47;22.30;99.90
5128;DHT22;2582;48.770;9.190;2023-09-30T10:40:30;22.50;99.90
5128;DHT22;2582;48.770;9.190;2023-09-30T10:42:56;22.60;99.90
5128;DHT22;2582;48.770;9.190;2023-09-30T10:45:42;22.40;99.90
5128;DHT22;2582;48.770;9.190;2023-09-30T10:51:13;22.80;99.90
5128;DHT22;2582;48.770;9.190;2023-09-30T10:53:42;22.80;99.90
5128;DHT22;2582;48.770;9.190;2023-09-30T10:56:08;22.70;99.90
5128;DHT22;2582;48.770;9.190;2023-09-30T10:58:44;23.10;99.90
5128;DHT22;2582;48.770;9.190;2023-09-30T11:01:11;23.10;99.90
5128;DHT22;2582;48.770;9.190;2023-09-30T11:03:39;22.40;99.90
5128;DHT22;2582;48.770;9.190;2023-09-30T11:06:04;22.30;99.90
5128;DHT22;2582;48.770;9.190;2023-09-30T11:08:30;22.20;99.90
5128;DHT22;2582;48.770;9.190;2023-09-30T11:10:56;22.00;99.90
5128;DHT22;2582;48.770;9.190;2023-09-30T11:13:22;21.90;99.90
5128;DHT22;2582;48.770;9.190;2023-09-30T11:16:00;21.90;99.90
5128;DHT22;2582;48.770;9.190;2023-09-30T11:18:26;21.70;99.90
5128;DHT22;2582;48.770;9.190;2023-09-30T11:21:03;22.20;99.90
5128;DHT22;2582;48.770;9.190;2023-09-30T11:23:30;22.50;99.90
5128;DHT22;2582;48.770;9.190;2023-09-30T11:25:56;22.50;99.90
5128;DHT22;2582;48.770;9.190;2023-09-30T11:28:22;23.40;99.90
5128;DHT22;2582;48.770;9.190;2023-09-30T11:30:59;25.00;99.90
5128;DHT22;2582;48.770;9.190;2023-09-30T11:33:25;24.80;98.90
5128;DHT22;2582;48.770;9.190;2023-09-30T11:36:02;24.50;99.20
5128;DHT22;2582;48.770;9.190;2023-09-30T11:38:28;24.50;98.60
5128;DHT22;2582;48.770;9.190;2023-09-30T11:41:05;26.00;97.60
5128;DHT22;2582;48.770;9.190;2023-09-30T11:43:33;27.20;95.30
5128;DHT22;2582;48.770;9.190;2023-09-30T11:46:12;28.00;93.20
5128;DHT22;2582;48.770;9.190;2023-09-30T11:48:51;27.60;92.30
5128;DHT22;2582;48.770;9.190;2023-09-30T11:51:22;28.30;91.10
5128;DHT22;2582;48.770;9.190;2023-09-30T11:53:50;28.60;89.80
5128;DHT22;2582;48.770;9.190;2023-09-30T11:56:16;29.60;86.80
5128;DHT22;2582;48.770;9.190;2023-09-30T11:58:41;29.90;83.30
5128;DHT22;2582;48.770;9.190;2023-09-30T12:01:07;29.20;84.70
5128;DHT22;2582;48.770;9.190;2023-09-30T12:03:35;27.10;88.20
5128;DHT22;2582;48.770;9.190;2023-09-30T12:06:08;27.30;89.00
5128;DHT22;2582;48.770;9.190;2023-09-30T12:08:42;27.60;87.70
5128;DHT22;2582;48.770;9.190;2023-09-30T12:11:07;27.80;87.10
5128;DHT22;2582;48.770;9.190;2023-09-30T12:13:33;27.50;87.70
5128;DHT22;2582;48.770;9.190;2023-09-30T12:15:58;28.00;85.00
5128;DHT22;2582;48.770;9.190;2023-09-30T12:18:24;26.60;86.30
5128;DHT22;2582;48.770;9.190;2023-09-30T12:20:50;26.00;88.30
5128;DHT22;2582;48.770;9.190;2023-09-30T12:23:17;25.90;89.80
5128;DHT22;2582;48.770;9.190;2023-09-30T12:25:44;25.60;90.30
5128;DHT22;2582;48.770;9.190;2023-09-30T12:28:09;25.10;90.40
5128;DHT22;2582;48.770;9.190;2023-09-30T12:30:35;24.20;91.40
5128;DHT22;2582;48.770;9.190;2023-09-30T12:33:01;24.00;92.50
5128;DHT22;2582;48.770;9.190;2023-09-30T12:35:27;24.00;92.30
5128;DHT22;2582;48.770;9.190;2023-09-30T12:37:52;23.70;93.00
5128;DHT22;2582;48.770;9.190;2023-09-30T12:40:18;23.80;93.00
5128;DHT22;2582;48.770;9.190;2023-09-30T12:42:44;24.90;91.90
5128;DHT22;2582;48.770;9.190;2023-09-30T12:45:10;26.20;91.00
5128;DHT22;2582;48.770;9.190;2023-09-30T12:47:36;26.70;89.70
5128;DHT22;2582;48.770;9.190;2023-09-30T12:50:02;27.30;86.50
5128;DHT22;2582;48.770;9.190;2023-09-30T12:52:28;28.50;83.80
5128;DHT22;2582;48.770;9.190;2023-09-30T12:54:55;28.70;81.90
5128;DHT22;2582;48.770;9.190;2023-09-30T12:57:21;28.00;83.30
5128;DHT22;2582;48.770;9.190;2023-09-30T12:59:47;28.30;81.70
5128;DHT22;2582;48.770;9.190;2023-09-30T13:02:14;28.60;83.20
5128;DHT22;2582;48.770;9.190;2023-09-30T13:04:40;29.40;79.10
5128;DHT22;2582;48.770;9.190;2023-09-30T13:07:09;30.70;75.90
5128;DHT22;2582;48.770;9.190;2023-09-30T13:09:35;31.40;72.20
5128;DHT22;2582;48.770;9.190;2023-09-30T13:12:02;31.20;72.00
5128;DHT22;2582;48.770;9.190;2023-09-30T13:14:28;30.30;70.40
5128;DHT22;2582;48.770;9.190;2023-09-30T13:16:54;29.90;72.70
5128;DHT22;2582;48.770;9.190;2023-09-30T13:19:19;28.90;73.60
5128;DHT22;2582;48.770;9.190;2023-09-30T13:21:51;27.30;77.70
5128;DHT22;2582;48.770;9.190;2023-09-30T13:24:19;27.60;77.30
5128;DHT22;2582;48.770;9.190;2023-09-30T13:26:45;27.50;75.70
5128;DHT22;2582;48.770;9.190;2023-09-30T13:29:11;28.10;75.70
5128;DHT22;2582;48.770;9.190;2023-09-30T13:31:37;29.30;74.00
5128;DHT22;2582;48.770;9.190;2023-09-30T13:34:04;29.80;73.00
5128;DHT22;2582;48.770;9.190;2023-09-30T13:36:30;29.40;72.30
5128;DHT22;2582;48.770;9.190;2023-09-30T13:38:55;29.20;71.40
5128;DHT22;2582;48.770;9.190;2023-09-30T13:41:21;28.70;74.80
5128;DHT22;2582;48.770;9.190;2023-09-30T13:43:47;28.20;73.00
5128;DHT22;2582;48.770;9.190;2023-09-30T13:46:12;27.60;76.50
5128;DHT22;2582;48.770;9.190;2023-09-30T13:48:38;27.00;78.60
5128;DHT22;2582;48.770;9.190;2023-09-30T13:53:30;25.40;83.30
5128;DHT22;2582;48.770;9.190;2023-09-30T13:55:56;25.20;85.30
5128;DHT22;2582;48.770;9.190;2023-09-30T13:58:21;25.10;86.30
5128;DHT22;2582;48.770;9.190;2023-09-30T14:00:47;25.10;86.20
5128;DHT22;2582;48.770;9.190;2023-09-30T14:03:13;24.80;87.20
5128;DHT22;2582;48.770;9.190;2023-09-30T14:05:39;24.20;89.50
5128;DHT22;2582;48.770;9.190;2023-09-30T14:08:05;24.40;90.20
5128;DHT22;2582;48.770;9.190;2023-09-30T14:10:33;24.40;90.00
5128;DHT22;2582;48.770;9.190;2023-09-30T14:12:58;23.90;90.20
5128;DHT22;2582;48.770;9.190;2023-09-30T14:15:24;24.10;90.10
5128;DHT22;2582;48.770;9.190;2023-09-30T14:17:56;24.20;89.30
5128;DHT22;2582;48.770;9.190;2023-09-30T14:20:23;24.70;89.40
5128;DHT22;2582;48.770;9.190;2023-09-30T14:22:50;25.60;87.40
5128;DHT22;2582;48.770;9.190;2023-09-30T14:25:19;25.00;87.40
5128;DHT22;2582;48.770;9.190;2023-09-30T14:27:45;25.20;88.40
5128;DHT22;2582;48.770;9.190;2023-09-30T14:30:11;25.70;87.50
5128;DHT22;2582;48.770;9.190;2023-09-30T14:32:36;25.60;86.10
5128;DHT22;2582;48.770;9.190;2023-09-30T14:35:03;25.70;85.90
5128;DHT22;2582;48.770;9.190;2023-09-30T14:37:31;25.50;86.20
5128;DHT22;2582;48.770;9.190;2023-09-30T14:39:56;24.90;88.20
5128;DHT22;2582;48.770;9.190;2023-09-30T14:42:22;25.20;86.50
5128;DHT22;2582;48.770;9.190;2023-09-30T14:44:47;25.40;86.80
5128;DHT22;2582;48.770;9.190;2023-09-30T14:47:13;24.90;87.90
5128;DHT22;2582;48.770;9.190;2023-09-30T14:49:38;24.30;89.70
5128;DHT22;2582;48.770;9.190;2023-09-30T14:52:04;24.50;90.70
5128;DHT22;2582;48.770;9.190;2023-09-30T14:54:30;23.90;90.80
5128;DHT22;2582;48.770;9.190;2023-09-30T14:56:56;24.10;90.60
5128;DHT22;2582;48.770;9.190;2023-09-30T14:59:22;24.60;90.40
5128;DHT22;2582;48.770;9.190;2023-09-30T15:01:47;24.60;90.00
5128;DHT22;2582;48.770;9.190;2023-09-30T15:04:14;24.70;90.10
5128;DHT22;2582;48.770;9.190;2023-09-30T15:06:41;24.80;89.50
5128;DHT22;2582;48.770;9.190;2023-09-30T15:09:07;24.80;89.10
5128;DHT22;2582;48.770;9.190;2023-09-30T15:11:35;24.60;89.20
5128;DHT22;2582;48.770;9.190;2023-09-30T15:14:00;24.20;90.10
5128;DHT22;2582;48.770;9.190;2023-09-30T15:16:26;24.00;90.30
5128;DHT22;2582;48.770;9.190;2023-09-30T15:18:51;23.80;90.40
5128;DHT22;2582;48.770;9.190;2023-09-30T15:21:17;23.90;90.60
5128;DHT22;2582;48.770;9.190;2023-09-30T15:23:43;24.00;90.30
5128;DHT22;2582;48.770;9.190;2023-09-30T15:26:09;23.40;90.80
5128;DHT22;2582;48.770;9.190;2023-09-30T15:28:36;23.20;91.30
5128;DHT22;2582;48.770;9.190;2023-09-30T15:31:02;23.00;91.60
5128;DHT22;2582;48.770;9.190;2023-09-30T15:33:28;23.20;91.60
5128;DHT22;2582;48.770;9.190;2023-09-30T15:35:54;23.00;91.60
5128;DHT22;2582;48.770;9.190;2023-09-30T15:38:20;23.10;91.60
5128;DHT22;2582;48.770;9.190;2023-09-30T15:40:54;23.20;91.50
5128;DHT22;2582;48.770;9.190;2023-09-30T15:43:20;23.10;91.40
5128;DHT22;2582;48.770;9.190;2023-09-30T15:45:48;23.00;92.40
5128;DHT22;2582;48.770;9.190;2023-09-30T15:48:13;23.20;91.20
5128;DHT22;2582;48.770;9.190;2023-09-30T15:50:39;23.30;91.50
5128;DHT22;2582;48.770;9.190;2023-09-30T15:53:05;23.40;91.40
5128;DHT22;2582;48.770;9.190;2023-09-30T15:55:32;23.30;91.40
5128;DHT22;2582;48.770;9.190;2023-09-30T15:57:57;22.90;92.10
5128;DHT22;2582;48.770;9.190;2023-09-30T16:00:23;22.50;92.40
5128;DHT22;2582;48.770;9.190;2023-09-30T16:02:48;22.20;92.80
5128;DHT22;2582;48.770;9.190;2023-09-30T16:05:14;22.20;93.20
5128;DHT22;2582;48.770;9.190;2023-09-30T16:07:40;22.50;93.00
5128;DHT22;2582;48.770;9.190;2023-09-30T16:10:07;22.60;92.90
5128;DHT22;2582;48.770;9.190;2023-09-30T16:12:32;22.60;92.60
5128;DHT22;2582;48.770;9.190;2023-09-30T16:14:58;22.50;92.70
5128;DHT22;2582;48.770;9.190;2023-09-30T16:17:23;22.50;92.80
5128;DHT22;2582;48.770;9.190;2023-09-30T16:19:49;22.10;93.20
5128;DHT22;2582;48.770;9.190;2023-09-30T16:22:14;22.00;93.60
5128;DHT22;2582;48.770;9.190;2023-09-30T16:24:40;22.30;93.60